Time;durP1;ratioP1;P1;durP2;ratioP2;P2;SDS_P1;SDS_P2;PMS_P1;PMS_P2;Temp;Humidity;BMP_temperature;BMP_pressure;BME280_temperature;BME280_humidity;BME280_pressure;Samples;Min_cycle;Max_cycle;Signal;HPM_P1;HPM_P2
2021/04/06 04:58:08;;;;;;;16.37;10.05;;;;;;;4.85;63.56;98793.02;1842682;77;22701;-70
2021/04/06 05:00:37;;;;;;;14.98;10.18;;;;;;;4.86;63.24;98793.39;1812487;77;20973;-71
2021/04/06 05:03:06;;;;;;;11.28;9.53;;;;;;;4.91;62.98;98799.59;1811537;78;21641;-68
2021/04/06 05:05:34;;;;;;;13.98;9.75;;;;;;;4.94;62.84;98796.41;1732509;81;21024;-65
2021/04/06 05:08:05;;;;;;;12.05;9.50;;;;;;;5.02;62.88;98807.16;1751642;81;21043;-69
2021/04/06 05:10:42;;;;;;;13.20;9.08;;;;;;;5.15;62.73;98802.64;1739271;82;21083;-66
2021/04/06 05:13:16;;;;;;;11.57;8.60;;;;;;;5.30;62.34;98800.50;1727849;81;21139;-64
2021/04/06 05:15:45;;;;;;;15.45;9.38;;;;;;;5.44;61.83;98804.47;1728526;81;22137;-69
2021/04/06 05:18:15;;;;;;;17.85;10.08;;;;;;;5.58;61.70;98805.00;1736107;80;21030;-62
2021/04/06 05:20:43;;;;;;;13.10;8.78;;;;;;;5.69;61.29;98807.80;1749386;80;21167;-60
2021/04/06 05:23:12;;;;;;;11.20;8.78;;;;;;;5.79;60.95;98805.08;1747350;80;21674;-69
2021/04/06 05:25:41;;;;;;;12.85;9.90;;;;;;;5.90;60.48;98800.19;1735208;82;21638;-63
2021/04/06 05:28:09;;;;;;;15.20;10.70;;;;;;;6.03;59.93;98799.83;1745193;81;21373;-58
2021/04/06 05:30:38;;;;;;;12.03;9.45;;;;;;;6.21;59.76;98802.30;1743412;80;21630;-70
2021/04/06 05:33:07;;;;;;;12.18;9.58;;;;;;;6.46;59.43;98790.04;1756360;81;21614;-70
2021/04/06 05:35:36;;;;;;;15.43;9.60;;;;;;;6.76;58.53;98791.28;1733635;81;21056;-69
2021/04/06 05:38:05;;;;;;;13.78;9.53;;;;;;;7.12;58.04;98799.38;1740659;81;21006;-69
2021/04/06 05:40:34;;;;;;;12.55;9.40;;;;;;;7.56;57.11;98790.59;1750248;80;23041;-66
2021/04/06 05:43:03;;;;;;;14.10;9.35;;;;;;;8.01;55.93;98801.02;1771028;80;21174;-65
2021/04/06 05:45:35;;;;;;;12.35;8.75;;;;;;;8.33;54.27;98801.08;1754961;80;21647;-71
2021/04/06 05:48:07;;;;;;;12.82;9.23;;;;;;;8.50;52.88;98794.73;1742629;80;21166;-65
2021/04/06 05:50:39;;;;;;;10.45;8.50;;;;;;;8.61;52.41;98790.13;1743962;81;20941;-69
2021/04/06 05:53:08;;;;;;;11.68;8.93;;;;;;;8.67;52.42;98797.03;1739354;81;22104;-69
2021/04/06 05:55:37;;;;;;;11.93;8.93;;;;;;;8.75;52.28;98800.41;1721681;82;21581;-70
2021/04/06 05:58:05;;;;;;;11.83;8.43;;;;;;;8.86;52.26;98788.80;1720374;82;21610;-68
2021/04/06 06:00:34;;;;;;;10.85;9.38;;;;;;;8.93;51.82;98795.23;1735473;81;21657;-57
2021/04/06 06:03:05;;;;;;;12.07;9.20;;;;;;;8.90;51.55;98799.80;1735471;81;21639;-60
2021/04/06 06:05:35;;;;;;;13.55;9.60;;;;;;;8.83;51.92;98794.20;1740147;81;22313;-66
2021/04/06 06:08:09;;;;;;;11.73;9.25;;;;;;;8.78;52.14;98803.27;1737578;81;21025;-67
2021/04/06 06:10:37;;;;;;;13.10;9.45;;;;;;;8.77;52.16;98810.69;1735628;82;22045;-65
2021/04/06 06:13:23;;;;;;;11.15;9.20;;;;;;;8.75;52.09;98806.07;1734828;81;21601;-61
2021/04/06 06:16:26;;;;;;;10.43;9.30;;;;;;;8.72;52.20;98807.11;1739791;80;22786;-57
2021/04/06 06:19:10;;;;;;;10.75;9.23;;;;;;;8.69;52.10;98804.25;1702738;82;21359;-69
2021/04/06 06:21:51;;;;;;;11.78;9.68;;;;;;;8.66;52.28;98801.03;1729189;82;21631;-67
2021/04/06 06:24:28;;;;;;;13.03;9.98;;;;;;;8.66;52.49;98815.30;1729035;82;21579;-70
2021/04/06 06:26:59;;;;;;;12.30;9.35;;;;;;;8.69;52.59;98812.50;1723159;80;21013;-58
2021/04/06 06:29:33;;;;;;;12.93;8.80;;;;;;;8.75;52.43;98809.96;1729797;82;21551;-68
2021/04/06 06:32:02;;;;;;;14.30;10.53;;;;;;;8.83;52.59;98803.29;1745960;81;21088;-70
2021/04/06 06:34:38;;;;;;;14.38;9.93;;;;;;;8.92;52.46;98803.95;1733013;82;21068;-69
2021/04/06 06:37:27;;;;;;;13.58;10.35;;;;;;;8.96;51.92;98811.07;1722318;82;21478;-68
2021/04/06 06:40:02;;;;;;;12.60;9.78;;;;;;;8.95;51.87;98814.13;1733726;82;21542;-68
2021/04/06 06:42:37;;;;;;;13.98;9.50;;;;;;;8.92;51.51;98816.94;1728190;82;21591;-68
2021/04/06 06:45:26;;;;;;;11.43;8.98;;;;;;;8.93;51.50;98813.41;1719947;82;21424;-69
2021/04/06 06:47:56;;;;;;;14.47;9.95;;;;;;;8.97;51.45;98819.22;1745846;81;21018;-70
2021/04/06 06:50:26;;;;;;;16.10;9.98;;;;;;;9.02;51.30;98817.14;1750416;82;21629;-67
2021/04/06 06:52:58;;;;;;;14.40;9.75;;;;;;;9.09;51.11;98824.88;1736928;82;21065;-65
2021/04/06 06:55:28;;;;;;;12.23;10.13;;;;;;;9.18;51.05;98823.41;1722460;82;21564;-67
2021/04/06 06:58:04;;;;;;;11.80;9.35;;;;;;;9.26;51.01;98824.52;1721160;82;21209;-66
2021/04/06 07:00:45;;;;;;;12.60;9.68;;;;;;;9.32;50.77;98829.28;1792610;79;21179;-65
2021/04/06 07:03:21;;;;;;;15.93;12.45;;;;;;;9.38;50.96;98836.29;1751272;79;21400;-66
2021/04/06 07:05:50;;;;;;;19.65;14.23;;;;;;;9.44;50.75;98830.20;1785324;78;21490;-67
2021/04/06 07:08:40;;;;;;;17.10;13.18;;;;;;;9.54;51.00;98835.58;1777445;78;21102;-64
2021/04/06 07:11:08;;;;;;;16.25;10.35;;;;;;;9.68;51.04;98839.30;1786751;78;22036;-66
2021/04/06 07:13:38;;;;;;;13.28;10.45;;;;;;;9.81;50.33;98836.19;1787426;78;20941;-66
2021/04/06 07:16:07;;;;;;;12.60;10.13;;;;;;;9.92;50.31;98844.53;1787534;78;21547;-66
2021/04/06 07:18:38;;;;;;;14.18;10.93;;;;;;;10.06;50.26;98845.64;1714927;80;21563;-64
2021/04/06 07:21:06;;;;;;;14.28;11.63;;;;;;;10.25;50.16;98845.99;1783584;78;20997;-68
2021/04/06 07:23:59;;;;;;;13.90;9.90;;;;;;;10.48;49.88;98846.88;1722169;81;21266;-67
2021/04/06 07:26:29;;;;;;;13.43;10.45;;;;;;;10.74;48.53;98842.33;1787397;78;21026;-63
2021/04/06 07:28:58;;;;;;;14.18;10.75;;;;;;;10.96;47.94;98844.12;1786952;79;21349;-76
2021/04/06 07:31:26;;;;;;;16.10;11.00;;;;;;;11.12;47.80;98847.21;1778599;79;21029;-68
2021/04/06 07:33:55;;;;;;;15.58;11.80;;;;;;;11.31;47.35;98845.30;1781622;79;21499;-70
2021/04/06 07:36:25;;;;;;;15.35;11.55;;;;;;;11.45;46.21;98846.35;1791088;78;22725;-63
2021/04/06 07:39:07;;;;;;;15.23;11.28;;;;;;;11.50;46.53;98844.69;1783732;78;21024;-64
2021/04/06 07:41:42;;;;;;;21.40;12.37;;;;;;;11.56;45.82;98841.61;1788608;78;21163;-63
2021/04/06 07:44:12;;;;;;;14.13;12.15;;;;;;;11.61;45.93;98845.95;1750494;79;21624;-67
2021/04/06 07:46:44;;;;;;;14.65;10.10;;;;;;;11.65;46.12;98852.58;1787943;79;21191;-70
2021/04/06 07:52:45;;;;;;;13.75;10.95;;;;;;;11.94;45.45;98838.57;1783761;78;21605;-66
2021/04/06 07:55:13;;;;;;;14.13;10.00;;;;;;;12.21;44.57;98848.06;1783054;79;21685;-70
2021/04/06 07:57:47;;;;;;;17.20;10.38;;;;;;;12.33;43.84;98850.16;1781849;79;21024;-70
2021/04/06 08:00:41;;;;;;;16.60;11.50;;;;;;;12.45;43.59;98849.12;1786643;79;21020;-67
2021/04/06 08:03:59;;;;;;;21.93;11.83;;;;;;;12.58;42.95;98857.60;1779764;79;21367;-65
2021/04/06 08:06:57;;;;;;;16.27;11.33;;;;;;;12.65;42.78;98858.75;1773238;79;22129;-62
2021/04/06 08:09:43;;;;;;;14.55;11.20;;;;;;;12.75;42.13;98852.77;1772874;79;21076;-64
2021/04/06 08:12:41;;;;;;;14.60;10.65;;;;;;;12.84;42.47;98857.20;1782624;78;21636;-69
2021/04/06 08:15:21;;;;;;;14.28;10.00;;;;;;;12.95;42.19;98854.03;1754749;79;21100;-59
2021/04/06 08:17:58;;;;;;;11.93;9.83;;;;;;;13.14;41.43;98842.03;1777696;79;21996;-65
2021/04/06 08:20:43;;;;;;;11.85;10.03;;;;;;;13.36;41.06;98845.78;1769444;79;20972;-70
2021/04/06 08:23:37;;;;;;;12.60;9.33;;;;;;;13.55;40.15;98845.84;1780647;79;21028;-64
2021/04/06 08:26:35;;;;;;;12.03;9.35;;;;;;;13.68;39.91;98842.96;1786015;79;20957;-72
2021/04/06 08:29:30;;;;;;;11.57;9.48;;;;;;;13.77;39.72;98844.78;1776151;79;21068;-63
2021/04/06 08:32:19;;;;;;;12.28;9.38;;;;;;;13.90;38.83;98845.84;1788056;79;22193;-65
2021/04/06 08:35:11;;;;;;;15.40;10.23;;;;;;;13.91;37.79;98841.78;1758107;79;21646;-70
2021/04/06 08:37:48;;;;;;;16.05;11.95;;;;;;;13.89;38.05;98843.70;1776993;79;21677;-70
2021/04/06 08:43:40;;;;;;;11.78;9.83;;;;;;;14.15;36.94;98836.61;1826032;76;23106;-71
2021/04/06 08:46:40;;;;;;;;;;;;;;;;;;;;;
2021/04/06 08:49:25;;;;;;;14.43;11.25;;;;;;;14.44;36.22;98836.61;1809613;77;22796;-72
2021/04/06 08:51:59;;;;;;;13.90;9.18;;;;;;;14.52;35.94;98832.34;1788287;78;21592;-69
2021/04/06 08:54:32;;;;;;;12.28;9.13;;;;;;;14.69;35.22;98839.97;1836879;77;21183;-72
2021/04/06 08:57:07;;;;;;;11.12;8.80;;;;;;;14.84;34.99;98834.60;1838674;77;21696;-72
2021/04/06 08:59:39;;;;;;;9.43;7.70;;;;;;;14.98;34.84;98828.09;1837837;77;21483;-64
2021/04/06 09:02:14;;;;;;;9.98;8.18;;;;;;;15.08;34.52;98838.55;1789877;79;20929;-67
2021/04/06 09:04:46;;;;;;;8.28;6.83;;;;;;;15.16;34.15;98837.34;1813274;77;21077;-66
2021/04/06 09:07:22;;;;;;;12.00;8.10;;;;;;;15.22;33.85;98836.74;1812028;77;21185;-73
2021/04/06 09:10:10;;;;;;;9.90;7.45;;;;;;;15.25;33.96;98829.90;1812115;77;21046;-62
2021/04/06 09:12:43;;;;;;;8.68;7.15;;;;;;;15.30;33.20;98834.23;1823120;77;21038;-70
2021/04/06 09:15:15;;;;;;;32.05;10.90;;;;;;;15.30;33.39;98835.05;1832484;77;21563;-71
2021/04/06 09:17:43;;;;;;;9.18;8.08;;;;;;;15.26;33.54;98831.06;1763911;81;21012;-66
2021/04/06 09:20:15;;;;;;;11.75;7.90;;;;;;;15.22;33.31;98832.33;1772510;79;21613;-71
2021/04/06 09:22:46;;;;;;;8.95;7.83;;;;;;;15.16;33.66;98822.44;1753402;81;20995;-74
2021/04/06 09:25:21;;;;;;;10.50;8.15;;;;;;;15.15;33.45;98823.89;1776839;79;20957;-72
2021/04/06 09:27:57;;;;;;;9.50;7.20;;;;;;;15.11;33.33;98826.46;1793209;79;21084;-64
2021/04/06 09:30:32;;;;;;;7.55;6.80;;;;;;;15.04;33.59;98819.66;1798202;79;21587;-73
2021/04/06 09:33:07;;;;;;;9.65;7.45;;;;;;;14.94;34.15;98818.85;1790763;79;21207;-72
2021/04/06 09:35:36;;;;;;;8.08;6.53;;;;;;;14.89;34.12;98818.45;1787364;79;21056;-70
2021/04/06 09:38:04;;;;;;;9.25;7.42;;;;;;;14.86;34.66;98827.42;1787719;79;21637;-68
2021/04/06 09:40:37;;;;;;;9.53;7.70;;;;;;;14.84;34.77;98833.77;1779869;79;21554;-73
2021/04/06 09:43:15;;;;;;;9.08;7.65;;;;;;;14.81;35.15;98831.44;1801826;79;20945;-71
2021/04/06 09:45:54;;;;;;;9.03;7.78;;;;;;;14.80;35.29;98821.92;1756206;80;21648;-71
2021/04/06 09:48:23;;;;;;;8.90;7.33;;;;;;;14.79;34.84;98822.44;1784022;79;22134;-67
2021/04/06 09:51:04;;;;;;;13.10;7.78;;;;;;;14.78;34.86;98820.78;1811120;79;20982;-69
2021/04/06 09:53:37;;;;;;;9.70;8.25;;;;;;;14.80;34.98;98819.30;1806564;79;21238;-65
2021/04/06 09:56:08;;;;;;;9.95;7.53;;;;;;;14.79;35.09;98823.75;1811248;79;21508;-69
2021/04/06 09:58:37;;;;;;;16.93;7.75;;;;;;;14.80;35.29;98817.99;1824672;77;22104;-72
2021/04/06 10:01:25;;;;;;;9.80;8.23;;;;;;;14.79;35.18;98821.13;1827545;77;21180;-71
2021/04/06 10:04:01;;;;;;;9.50;8.05;;;;;;;14.77;34.90;98824.86;1819163;77;21117;-65
2021/04/06 10:06:40;;;;;;;10.10;8.43;;;;;;;14.67;35.18;98825.70;1819079;77;21124;-69
2021/04/06 10:09:25;;;;;;;9.55;8.03;;;;;;;14.64;35.88;98833.02;1809640;79;21050;-72
2021/04/06 10:11:53;;;;;;;9.93;7.45;;;;;;;14.64;35.01;98836.94;1830514;77;21185;-73
2021/04/06 10:14:22;;;;;;;16.77;8.20;;;;;;;14.62;34.21;98831.84;1840901;77;21651;-72
2021/04/06 10:17:04;;;;;;;10.00;7.62;;;;;;;14.58;34.40;98822.61;1784083;77;21445;-70
2021/04/06 10:19:34;;;;;;;9.65;7.40;;;;;;;14.56;34.46;98824.55;1847638;77;21076;-65
2021/04/06 10:22:11;;;;;;;8.40;7.25;;;;;;;14.51;33.20;98825.92;1839855;76;20991;-68
2021/04/06 10:24:47;;;;;;;8.05;7.10;;;;;;;14.41;33.09;98825.94;1790401;78;21209;-74
2021/04/06 10:27:28;;;;;;;11.10;7.65;;;;;;;14.35;33.28;98821.25;1789787;77;21018;-65
2021/04/06 10:29:59;;;;;;;7.83;7.03;;;;;;;14.25;33.38;98829.10;1817645;77;20998;-61
2021/04/06 10:32:36;;;;;;;8.40;7.22;;;;;;;14.18;33.87;98824.55;1791004;78;21054;-72
2021/04/06 10:35:34;;;;;;;8.13;6.87;;;;;;;14.17;33.99;98828.13;1818049;77;21623;-68
2021/04/06 10:38:05;;;;;;;8.33;6.62;;;;;;;14.14;33.83;98833.64;1679652;84;22255;-70
2021/04/06 10:40:40;;;;;;;8.10;7.30;;;;;;;14.12;33.51;98819.87;1678835;84;22298;-69
2021/04/06 10:43:16;;;;;;;9.53;7.58;;;;;;;14.12;33.87;98825.93;1685648;84;21544;-59
2021/04/06 10:46:07;;;;;;;13.88;8.40;;;;;;;14.13;33.75;98830.20;1678246;84;21104;-70
2021/04/06 10:48:42;;;;;;;10.95;7.65;;;;;;;14.15;33.93;98819.59;1684644;84;21837;-72
2021/04/06 10:51:18;;;;;;;12.88;7.62;;;;;;;14.14;33.86;98822.69;1685061;84;21165;-72
2021/04/06 10:53:55;;;;;;;8.65;7.37;;;;;;;14.15;34.21;98824.83;1684701;84;21650;-65
2021/04/06 10:56:30;;;;;;;9.53;7.53;;;;;;;14.16;34.20;98809.47;1681554;83;21050;-57
2021/04/06 10:59:07;;;;;;;8.83;7.75;;;;;;;14.17;33.94;98826.34;1683061;84;21018;-71
2021/04/06 11:01:47;;;;;;;9.48;7.53;;;;;;;14.19;33.65;98817.88;1681953;84;21588;-59
2021/04/06 11:04:18;;;;;;;13.18;8.63;;;;;;;14.25;34.27;98815.19;1691597;84;21218;-68
2021/04/06 11:06:51;;;;;;;9.58;7.62;;;;;;;14.32;34.58;98809.74;1682543;83;21051;-70
2021/04/06 11:09:26;;;;;;;11.70;8.25;;;;;;;14.39;33.70;98806.09;1648057;84;21229;-70
2021/04/06 11:11:57;;;;;;;12.40;8.38;;;;;;;14.39;34.09;98804.30;1687757;84;21335;-70
2021/04/06 11:14:27;;;;;;;11.33;7.85;;;;;;;14.45;34.59;98800.29;1675717;84;21534;-70
2021/04/06 11:16:56;;;;;;;12.53;8.13;;;;;;;14.48;34.52;98796.91;1666945;84;22178;-67
2021/04/06 11:19:28;;;;;;;17.55;9.03;;;;;;;14.50;34.23;98794.97;1673523;85;21242;-65
2021/04/06 11:22:02;;;;;;;12.35;8.43;;;;;;;14.48;34.49;98790.36;1665007;85;21125;-70
2021/04/06 11:24:32;;;;;;;10.88;8.05;;;;;;;14.45;34.56;98788.02;1655622;85;21086;-73
2021/04/06 11:27:02;;;;;;;11.63;8.58;;;;;;;14.43;34.21;98789.95;1657672;85;21241;-72
2021/04/06 11:29:32;;;;;;;12.43;7.95;;;;;;;14.42;34.21;98790.09;1708727;83;21636;-74
2021/04/06 11:32:04;;;;;;;9.68;7.75;;;;;;;14.38;33.64;98786.92;1699786;82;21680;-71
2021/04/06 11:34:38;;;;;;;10.20;7.55;;;;;;;14.35;33.98;98781.97;1700949;82;21605;-69
2021/04/06 11:37:10;;;;;;;14.20;9.08;;;;;;;14.32;34.03;98780.94;1678336;82;21104;-64
2021/04/06 11:39:42;;;;;;;9.03;8.00;;;;;;;14.28;33.62;98790.86;1703945;83;21029;-73
2021/04/06 11:42:12;;;;;;;11.30;8.88;;;;;;;14.22;33.97;98786.17;1699351;83;21378;-76
2021/04/06 11:44:41;;;;;;;10.85;8.78;;;;;;;14.19;33.85;98778.60;1692586;83;21109;-64
2021/04/06 11:47:12;;;;;;;13.72;9.23;;;;;;;14.18;34.07;98773.50;1682370;83;21568;-67
2021/04/06 11:49:44;;;;;;;12.40;9.30;;;;;;;14.18;34.51;98776.13;1680513;83;20954;-66
2021/04/06 11:52:15;;;;;;;11.85;9.30;;;;;;;14.20;34.38;98767.64;1696778;82;21077;-70
2021/04/06 11:54:48;;;;;;;14.45;8.40;;;;;;;14.22;34.25;98767.85;1698496;84;22082;-68
2021/04/06 11:57:28;;;;;;;9.55;7.45;;;;;;;14.24;33.81;98763.78;1676662;83;21071;-68
2021/04/06 11:59:58;;;;;;;10.10;8.08;;;;;;;14.22;33.76;98762.61;1691039;83;21105;-71
2021/04/06 12:02:28;;;;;;;14.10;7.72;;;;;;;14.23;33.77;98764.75;1693278;83;21059;-66
2021/04/06 12:04:57;;;;;;;9.85;7.70;;;;;;;14.24;33.94;98762.48;1692744;83;21085;-73
2021/04/06 12:07:26;;;;;;;10.25;8.53;;;;;;;14.23;33.54;98756.41;1683261;83;21360;-72
2021/04/06 12:09:55;;;;;;;9.30;7.53;;;;;;;14.21;33.50;98759.66;1733998;81;21079;-71
2021/04/06 12:12:28;;;;;;;8.45;6.90;;;;;;;14.21;33.12;98750.97;1702403;83;21070;-61
2021/04/06 12:14:57;;;;;;;11.00;7.10;;;;;;;14.21;32.19;98749.66;1701841;84;21092;-65
2021/04/06 12:17:26;;;;;;;7.78;6.53;;;;;;;14.20;32.33;98752.77;1751374;81;21076;-64
2021/04/06 12:20:00;;;;;;;8.20;6.62;;;;;;;14.18;32.69;98753.38;1728998;81;22302;-66
2021/04/06 12:22:35;;;;;;;8.28;7.25;;;;;;;14.18;32.61;98752.56;1701288;83;21023;-67
2021/04/06 12:25:05;;;;;;;10.60;8.10;;;;;;;14.16;32.66;98745.33;1682161;83;21043;-65
2021/04/06 12:27:33;;;;;;;8.95;8.03;;;;;;;14.15;32.48;98743.19;1711567;82;21748;-67
2021/04/06 12:30:05;;;;;;;12.60;8.18;;;;;;;14.08;32.89;98746.50;1720593;82;21413;-72
2021/04/06 12:32:34;;;;;;;7.47;6.78;;;;;;;13.99;32.68;98747.67;1679933;84;21348;-70
2021/04/06 12:35:06;;;;;;;8.78;7.60;;;;;;;13.93;32.60;98739.58;1680936;85;21151;-71
2021/04/06 12:37:35;;;;;;;9.55;7.50;;;;;;;13.91;32.42;98741.51;1722199;82;21623;-68
2021/04/06 12:40:09;;;;;;;12.75;7.60;;;;;;;13.90;32.60;98730.22;1723021;82;21527;-71
2021/04/06 12:42:39;;;;;;;12.07;7.00;;;;;;;13.96;32.77;98729.66;1714988;82;21014;-70
2021/04/06 12:45:11;;;;;;;8.73;7.22;;;;;;;14.03;32.49;98734.66;1693375;82;22267;-70
2021/04/06 12:47:40;;;;;;;11.45;8.33;;;;;;;14.06;32.61;98731.42;1720967;82;21638;-71
2021/04/06 12:50:11;;;;;;;7.83;6.83;;;;;;;14.07;32.42;98733.07;1691866;83;21547;-70
2021/04/06 12:52:40;;;;;;;10.38;6.83;;;;;;;14.10;32.65;98728.87;1689712;83;22036;-62
2021/04/06 12:55:10;;;;;;;12.80;8.03;;;;;;;14.15;33.02;98727.97;1713550;83;21680;-69
2021/04/06 12:57:38;;;;;;;8.68;7.42;;;;;;;14.22;32.82;98732.50;1717035;83;21269;-73
2021/04/06 13:00:08;;;;;;;8.98;7.50;;;;;;;14.30;32.59;98720.02;1706049;82;21576;-71
2021/04/06 13:02:38;;;;;;;9.40;7.17;;;;;;;14.34;32.34;98736.63;1748788;81;21046;-66
2021/04/06 13:05:08;;;;;;;9.10;6.45;;;;;;;14.38;32.41;98728.00;1680136;83;21012;-68
2021/04/06 13:07:37;;;;;;;10.53;6.97;;;;;;;14.39;32.18;98724.91;1720315;83;21129;-69
2021/04/06 13:10:08;;;;;;;9.38;6.42;;;;;;;14.40;31.70;98729.97;1735760;81;21348;-68
2021/04/06 13:12:38;;;;;;;9.10;7.45;;;;;;;14.41;32.04;98726.41;1713468;82;21037;-71
2021/04/06 13:15:08;;;;;;;9.58;7.80;;;;;;;14.46;31.89;98724.20;1708261;83;21092;-62
2021/04/06 13:17:37;;;;;;;10.03;8.15;;;;;;;14.50;32.36;98719.50;1697369;83;21080;-66
2021/04/06 13:20:24;;;;;;;10.20;7.22;;;;;;;14.54;32.40;98713.84;1700235;83;21121;-70
2021/04/06 13:22:59;;;;;;;13.43;8.08;;;;;;;14.62;32.13;98719.67;1826303;77;27834;-67
2021/04/06 13:25:28;;;;;;;10.10;7.00;;;;;;;14.61;32.29;98718.84;1799123;78;22097;-71
2021/04/06 13:27:56;;;;;;;9.58;6.78;;;;;;;14.68;32.23;98725.66;1817695;78;21985;-69
2021/04/06 13:30:27;;;;;;;11.88;7.95;;;;;;;14.70;32.26;98726.82;1791214;79;21070;-63
2021/04/06 13:32:55;;;;;;;8.63;6.92;;;;;;;14.67;32.19;98724.83;1799143;79;21058;-66
2021/04/06 13:35:24;;;;;;;11.50;8.63;;;;;;;14.61;32.44;98720.16;1803495;79;21604;-69
2021/04/06 13:37:54;;;;;;;28.50;17.30;;;;;;;14.54;36.22;98729.55;1801760;77;21435;-70
2021/04/06 13:40:23;;;;;;;19.48;11.53;;;;;;;14.33;39.24;98730.22;1798024;79;22177;-69
2021/04/06 13:42:52;;;;;;;18.07;12.10;;;;;;;13.95;40.81;98733.24;1800933;79;21057;-71
2021/04/06 13:45:24;;;;;;;25.65;14.33;;;;;;;13.50;41.72;98741.29;1786277;79;21616;-71
2021/04/06 13:47:55;;;;;;;24.82;14.20;;;;;;;13.12;42.89;98744.15;1811576;78;21593;-70
2021/04/06 13:50:24;;;;;;;20.20;12.35;;;;;;;12.86;43.99;98754.70;1791666;79;21568;-67
2021/04/06 13:52:53;;;;;;;18.07;10.05;;;;;;;12.75;45.98;98753.51;1799362;79;21244;-69
2021/04/06 13:55:21;;;;;;;18.95;9.93;;;;;;;12.57;46.48;98758.50;1799444;79;21682;-71
2021/04/06 13:57:52;;;;;;;25.45;15.15;;;;;;;12.45;46.83;98763.44;1795689;79;21660;-67
2021/04/06 14:00:25;;;;;;;22.20;13.18;;;;;;;12.34;47.35;98762.58;1790300;79;21165;-70
2021/04/06 14:02:53;;;;;;;18.42;11.15;;;;;;;12.22;48.08;98770.12;1795006;79;21013;-70
2021/04/06 14:05:23;;;;;;;19.40;11.73;;;;;;;11.95;48.63;98771.92;1799640;79;21375;-73
2021/04/06 14:07:51;;;;;;;27.62;11.88;;;;;;;11.70;48.83;98774.34;1792646;77;21063;-66
2021/04/06 14:10:21;;;;;;;26.12;14.50;;;;;;;11.41;49.51;98760.70;1786336;79;21616;-69
2021/04/06 14:12:57;;;;;;;12.73;9.43;;;;;;;11.17;50.08;98762.18;1816834;79;21055;-65
2021/04/06 14:15:33;;;;;;;12.70;7.90;;;;;;;11.04;50.68;98767.52;1816566;79;21193;-66
2021/04/06 14:18:05;;;;;;;11.40;7.67;;;;;;;10.99;51.33;98769.17;1817769;79;21182;-68
2021/04/06 14:20:34;;;;;;;19.35;11.85;;;;;;;10.96;51.50;98762.08;1817571;79;21636;-68
2021/04/06 14:23:12;;;;;;;38.05;22.17;;;;;;;10.91;51.36;98762.90;1818641;78;20988;-69
2021/04/06 14:25:41;;;;;;;45.60;26.45;;;;;;;10.85;51.60;98769.88;1818647;79;21588;-70
2021/04/06 14:28:12;;;;;;;40.50;24.95;;;;;;;10.79;51.90;98766.00;1808763;77;21523;-67
2021/04/06 14:30:44;;;;;;;45.23;23.95;;;;;;;10.72;52.12;98766.59;1804747;79;21368;-69
2021/04/06 14:33:15;;;;;;;31.52;17.40;;;;;;;10.64;52.64;98761.97;1805834;79;21561;-67
2021/04/06 14:35:44;;;;;;;19.37;12.30;;;;;;;10.58;53.02;98769.77;1805051;79;21752;-68
2021/04/06 14:38:12;;;;;;;19.17;12.88;;;;;;;10.53;53.00;98768.45;1805925;79;21642;-70
2021/04/06 14:40:41;;;;;;;20.30;13.53;;;;;;;10.47;53.06;98777.55;1803761;79;21368;-76
2021/04/06 14:43:33;;;;;;;22.70;14.15;;;;;;;10.41;53.43;98784.98;1804904;78;22218;-69
2021/04/06 14:46:06;;;;;;;23.07;13.85;;;;;;;10.32;53.21;98787.36;1806307;79;20996;-72
2021/04/06 14:48:39;;;;;;;22.62;14.60;;;;;;;10.17;53.56;98787.16;1792255;80;21154;-66
2021/04/06 14:51:11;;;;;;;23.25;12.10;;;;;;;10.04;53.95;98792.43;1807660;79;20887;-69
2021/04/06 14:53:39;;;;;;;16.52;10.95;;;;;;;9.98;54.45;98790.78;1807670;79;20977;-72
2021/04/06 14:56:08;;;;;;;17.50;10.05;;;;;;;9.84;55.17;98777.48;1793415;79;22017;-71
2021/04/06 14:58:40;;;;;;;19.40;12.07;;;;;;;9.64;55.57;98775.02;1803414;79;21617;-72
2021/04/06 15:01:09;;;;;;;20.88;11.97;;;;;;;9.48;56.04;98780.97;1810138;79;21024;-74
2021/04/06 15:03:39;;;;;;;19.82;11.30;;;;;;;9.34;56.53;98779.82;1792067;80;21009;-74
2021/04/06 15:06:09;;;;;;;19.35;12.18;;;;;;;9.21;57.43;98781.61;1808504;79;21554;-71
2021/04/06 15:08:37;;;;;;;24.10;13.88;;;;;;;9.11;57.88;98779.33;1807828;79;22041;-73
2021/04/06 15:11:07;;;;;;;24.65;13.72;;;;;;;9.04;58.33;98782.81;1734326;79;21553;-73
2021/04/06 15:13:37;;;;;;;26.65;13.48;;;;;;;8.99;58.71;98780.53;1808316;79;21005;-73
2021/04/06 15:16:08;;;;;;;25.88;14.47;;;;;;;8.94;58.93;98782.62;1807687;79;20981;-73
2021/04/06 15:18:41;;;;;;;28.07;16.27;;;;;;;8.91;58.97;98782.83;1793702;79;20937;-76
2021/04/06 15:21:13;;;;;;;31.82;16.60;;;;;;;8.94;59.18;98786.52;1807437;79;21578;-70
2021/04/06 15:23:42;;;;;;;29.48;15.35;;;;;;;8.96;59.23;98789.00;1803167;79;20900;-74
2021/04/06 15:26:13;;;;;;;30.43;16.07;;;;;;;8.95;59.24;98789.47;1812396;79;21578;-73
2021/04/06 15:28:42;;;;;;;31.17;18.07;;;;;;;8.95;59.23;98795.96;1792981;80;20925;-67
2021/04/06 15:31:13;;;;;;;34.95;17.20;;;;;;;8.91;59.40;98786.72;1816467;79;20922;-62
2021/04/06 15:33:42;;;;;;;22.93;14.63;;;;;;;8.82;59.74;98786.52;1816441;79;21202;-73
2021/04/06 15:36:16;;;;;;;24.63;13.98;;;;;;;8.71;60.07;98790.34;1792915;80;21591;-72
2021/04/06 15:38:43;;;;;;;21.65;12.63;;;;;;;8.64;60.27;98793.34;1816400;79;21566;-60
2021/04/06 15:41:13;;;;;;;20.15;12.53;;;;;;;8.54;60.61;98788.41;1825258;78;21040;-67
2021/04/06 15:43:43;;;;;;;16.80;11.28;;;;;;;8.46;60.85;98790.69;1816517;79;21037;-73
2021/04/06 15:46:14;;;;;;;32.25;20.72;;;;;;;8.41;61.07;98791.45;1816320;79;21240;-66
2021/04/06 15:48:44;;;;;;;19.02;14.40;;;;;;;8.34;61.23;98793.66;1811391;79;21570;-62
2021/04/06 15:51:13;;;;;;;25.20;18.77;;;;;;;8.28;61.45;98787.55;1793014;80;21428;-68
2021/04/06 15:53:43;;;;;;;26.37;20.30;;;;;;;8.24;61.66;98786.55;1816403;79;20982;-73
2021/04/06 15:56:13;;;;;;;38.95;28.57;;;;;;;8.21;62.01;98794.06;1816475;79;21001;-71
2021/04/06 15:58:41;;;;;;;34.95;28.05;;;;;;;8.16;62.18;98790.11;1792600;80;22136;-68
2021/04/06 16:01:10;;;;;;;33.90;25.12;;;;;;;8.10;62.28;98786.16;1808693;79;21390;-72
2021/04/06 16:03:39;;;;;;;28.40;24.55;;;;;;;8.09;62.46;98784.97;1810510;79;21459;-70
2021/04/06 16:06:09;;;;;;;23.85;17.52;;;;;;;8.06;62.63;98780.81;1807839;79;21484;-72
2021/04/06 16:08:37;;;;;;;25.12;18.57;;;;;;;8.00;62.82;98780.74;1816652;79;21464;-71
2021/04/06 16:11:06;;;;;;;22.30;16.17;;;;;;;7.95;62.99;98780.70;1773295;80;22107;-66
2021/04/06 16:13:36;;;;;;;22.10;14.47;;;;;;;7.91;63.17;98783.13;1812052;79;20990;-65
2021/04/06 16:16:06;;;;;;;21.33;16.67;;;;;;;7.87;63.34;98784.25;1770855;80;21539;-69
2021/04/06 16:18:36;;;;;;;34.50;22.80;;;;;;;7.83;63.66;98774.55;1804532;79;21044;-73
2021/04/06 16:21:05;;;;;;;36.42;26.93;;;;;;;7.78;63.81;98790.03;1793816;79;21106;-72
2021/04/06 16:23:33;;;;;;;33.20;24.23;;;;;;;7.73;64.00;98796.80;1818797;78;22252;-62
2021/04/06 16:26:04;;;;;;;39.03;23.70;;;;;;;7.69;64.12;98796.63;1797938;79;21032;-70
2021/04/06 16:28:33;;;;;;;37.23;21.95;;;;;;;7.68;64.34;98793.67;1830381;77;21046;-63
2021/04/06 16:31:02;;;;;;;37.25;20.68;;;;;;;7.69;64.55;98792.73;1828342;77;21341;-62
2021/04/06 16:33:38;;;;;;;41.65;21.57;;;;;;;7.66;64.89;98789.87;1825983;78;21005;-63
2021/04/06 16:36:09;;;;;;;39.13;20.72;;;;;;;7.66;65.22;98798.11;1821205;78;21194;-73
2021/04/06 16:38:38;;;;;;;26.55;14.78;;;;;;;7.63;66.35;98797.84;1797090;79;21585;-73
2021/04/06 16:41:12;;;;;;;20.10;12.98;;;;;;;7.56;66.95;98794.47;1822578;78;20886;-74
2021/04/06 16:43:40;;;;;;;23.73;15.38;;;;;;;7.52;67.17;98795.13;1817076;78;20942;-73
2021/04/06 16:46:09;;;;;;;22.20;14.20;;;;;;;7.50;67.43;98799.57;1797108;79;20906;-73
2021/04/06 16:48:37;;;;;;;21.60;14.80;;;;;;;7.45;67.64;98801.62;1827145;78;21563;-73
2021/04/06 16:51:07;;;;;;;26.33;15.20;;;;;;;7.40;67.98;98800.23;1822738;78;21547;-73
2021/04/06 16:53:39;;;;;;;14.87;11.18;;;;;;;7.31;68.35;98799.88;1797021;79;21415;-74
2021/04/06 16:56:12;;;;;;;17.48;11.25;;;;;;;7.24;68.55;98799.06;1823618;78;20945;-73
2021/04/06 16:58:40;;;;;;;19.02;11.65;;;;;;;7.18;68.63;98797.71;1796433;80;20922;-73
2021/04/06 17:01:11;;;;;;;43.75;23.95;;;;;;;7.15;68.70;98804.37;1828664;78;22062;-72